Time;durP1;ratioP1;P1;durP2;ratioP2;P2;SDS_P1;SDS_P2;PMS_P1;PMS_P2;Temp;Humidity;BMP_temperature;BMP_pressure;BME280_temperature;BME280_humidity;BME280_pressure;Samples;Min_cycle;Max_cycle;Signal;HPM_P1;HPM_P2
2023/04/05 00:01:24;;;;;;;11.70;2.97;;;;;;;6.75;40.04;102131.44;5010407;28;99475;-72
2023/04/05 00:03:53;;;;;;;7.95;3.22;;;;;;;6.88;39.99;102127.94;5007802;28;98793;-72
2023/04/05 00:06:21;;;;;;;9.02;2.67;;;;;;;6.59;40.97;102125.25;5005793;28;98333;-73
2023/04/05 00:08:48;;;;;;;7.90;2.90;;;;;;;6.89;40.48;102123.56;5010767;28;98551;-73
2023/04/05 00:11:15;;;;;;;6.75;2.33;;;;;;;6.78;41.01;102127.03;5003447;28;99042;-72
2023/04/05 00:13:41;;;;;;;6.18;3.25;;;;;;;6.72;41.16;102126.16;5005863;28;99142;-74
2023/04/05 00:16:08;;;;;;;6.00;2.03;;;;;;;6.99;41.07;102127.97;5008574;28;97255;-74
2023/04/05 00:18:37;;;;;;;5.68;2.30;;;;;;;6.91;40.95;102122.69;5006140;28;96907;-73
2023/04/05 00:21:05;;;;;;;13.25;2.97;;;;;;;7.23;40.67;102120.06;5004372;28;98922;-75
2023/04/05 00:23:38;;;;;;;6.25;2.75;;;;;;;7.09;40.64;102121.81;4998847;28;99365;-73
2023/04/05 00:26:04;;;;;;;7.03;3.08;;;;;;;7.26;40.25;102125.34;5005460;28;99531;-72
2023/04/05 00:28:31;;;;;;;6.43;2.88;;;;;;;7.11;40.00;102127.97;5003493;28;97756;-73
2023/04/05 00:30:57;;;;;;;7.82;3.33;;;;;;;7.15;39.61;102121.84;5003200;28;99099;-73
2023/04/05 00:33:23;;;;;;;9.77;3.38;;;;;;;7.20;38.78;102120.97;5007336;28;99031;-73
2023/04/05 00:35:50;;;;;;;6.88;3.00;;;;;;;7.06;41.59;102121.84;5004860;28;97446;-72
2023/04/05 00:38:17;;;;;;;8.25;3.10;;;;;;;6.90;41.76;102126.19;5007952;28;96869;-72
2023/04/05 00:40:44;;;;;;;7.90;3.20;;;;;;;6.78;42.77;102124.41;5011171;28;98949;-72
2023/04/05 00:43:10;;;;;;;7.70;2.67;;;;;;;6.70;42.96;102120.88;5011356;28;97538;-75
2023/04/05 00:45:37;;;;;;;10.35;2.90;;;;;;;6.63;42.99;102126.16;5012585;28;96710;-73
2023/04/05 00:48:06;;;;;;;6.30;3.00;;;;;;;6.60;42.85;102121.75;5012125;28;97664;-73
2023/04/05 00:50:33;;;;;;;7.65;2.53;;;;;;;6.43;42.90;102115.59;5012937;28;98889;-72
2023/04/05 00:53:00;;;;;;;5.72;2.50;;;;;;;6.48;43.20;102113.84;5014034;28;98793;-74
2023/04/05 00:55:28;;;;;;;9.05;3.33;;;;;;;6.26;43.26;102115.50;5008158;28;97066;-73
2023/04/05 00:57:55;;;;;;;5.13;2.63;;;;;;;6.37;43.12;102112.91;5009256;28;96862;-73
2023/04/05 01:00:22;;;;;;;7.72;3.40;;;;;;;6.32;43.33;102109.41;5005649;28;98904;-73
2023/04/05 01:02:52;;;;;;;8.40;2.95;;;;;;;6.37;43.66;102112.91;5005827;28;99240;-73
2023/04/05 01:05:30;;;;;;;6.30;3.03;;;;;;;6.38;43.44;102104.19;5011251;28;98030;-72
2023/04/05 01:08:05;;;;;;;8.10;2.90;;;;;;;6.27;43.88;102106.78;5008422;28;96905;-72
2023/04/05 01:10:38;;;;;;;5.65;2.55;;;;;;;6.32;43.83;102107.66;5009680;28;98892;-72
2023/04/05 01:13:05;;;;;;;7.63;3.15;;;;;;;6.29;44.46;102106.78;5005728;28;99483;-72
2023/04/05 01:15:32;;;;;;;7.68;3.10;;;;;;;6.09;43.98;102117.19;5002636;28;96808;-72
2023/04/05 01:18:00;;;;;;;5.80;2.60;;;;;;;6.31;43.21;102103.28;5009773;28;96890;-72
2023/04/05 01:20:31;;;;;;;12.55;2.97;;;;;;;6.47;42.90;102106.84;5007624;28;98922;-73
2023/04/05 01:23:13;;;;;;;8.27;2.97;;;;;;;6.43;42.95;102105.09;4999954;28;99698;-72
2023/04/05 01:26:18;;;;;;;6.78;2.90;;;;;;;6.32;43.98;102109.41;5000621;28;97357;-72
2023/04/05 01:28:58;;;;;;;6.03;2.92;;;;;;;6.09;43.63;102111.97;5000611;28;97280;-72
2023/04/05 01:31:31;;;;;;;8.10;2.95;;;;;;;6.15;44.11;102105.84;5006680;28;99645;-72
2023/04/05 01:34:05;;;;;;;9.68;2.75;;;;;;;6.07;42.80;102104.94;5008003;28;99161;-71
2023/04/05 01:36:39;;;;;;;7.97;2.92;;;;;;;6.05;43.83;102094.41;5004572;28;96739;-72
2023/04/05 01:39:08;;;;;;;5.13;2.40;;;;;;;6.04;44.04;102100.53;5006705;28;97275;-70
2023/04/05 01:41:35;;;;;;;12.90;3.13;;;;;;;6.02;43.48;102099.69;5003843;28;98883;-72
2023/04/05 01:44:01;;;;;;;5.18;2.80;;;;;;;5.91;43.80;102102.22;5007883;28;101953;-71
2023/04/05 01:46:29;;;;;;;7.13;2.85;;;;;;;5.93;44.03;102095.25;5010386;28;97213;-72
2023/04/05 01:48:56;;;;;;;5.88;3.08;;;;;;;5.97;43.56;102102.25;5012640;28;96876;-71
2023/04/05 01:51:22;;;;;;;7.57;3.33;;;;;;;5.96;43.78;102105.78;5003911;28;99252;-71
2023/04/05 01:53:48;;;;;;;5.10;2.55;;;;;;;5.98;43.87;102097.88;5008085;28;98877;-71
2023/04/05 01:56:15;;;;;;;6.43;2.60;;;;;;;6.00;43.91;102099.66;4997720;28;97468;-71
2023/04/05 01:58:41;;;;;;;6.97;2.70;;;;;;;6.03;43.37;102097.94;5008544;28;99078;-72
2023/04/05 02:01:07;;;;;;;5.07;2.70;;;;;;;5.91;43.81;102094.34;5009572;28;101345;-71
2023/04/05 02:03:35;;;;;;;8.18;2.95;;;;;;;5.91;44.20;102094.34;5009018;28;98846;-72
2023/04/05 02:06:02;;;;;;;6.30;2.75;;;;;;;6.04;43.49;102087.41;5006522;28;96942;-71
2023/04/05 02:08:28;;;;;;;5.63;2.65;;;;;;;5.92;43.95;102085.63;5004004;28;96909;-72
2023/04/05 02:10:55;;;;;;;5.25;2.20;;;;;;;6.32;43.76;102085.78;4999690;28;99028;-72
2023/04/05 02:13:22;;;;;;;7.43;2.80;;;;;;;6.34;42.98;102087.53;5005694;28;99292;-73
2023/04/05 02:15:49;;;;;;;5.43;3.22;;;;;;;6.12;43.83;102090.06;5004817;28;97604;-72
2023/04/05 02:18:20;;;;;;;8.57;2.90;;;;;;;6.22;43.76;102086.63;5009797;28;97133;-72
2023/04/05 02:20:48;;;;;;;9.85;3.17;;;;;;;6.23;43.91;102084.03;4998162;28;100661;-72
2023/04/05 02:23:15;;;;;;;10.50;3.15;;;;;;;6.40;43.82;102076.19;5008812;28;99439;-73
2023/04/05 02:25:41;;;;;;;12.25;3.15;;;;;;;6.47;43.76;102084.94;5002067;28;101577;-74
2023/04/05 02:28:07;;;;;;;9.25;3.33;;;;;;;6.37;44.02;102081.41;5001412;28;98492;-72
2023/04/05 02:30:34;;;;;;;6.88;3.15;;;;;;;6.51;43.81;102079.69;5004970;28;99525;-73
2023/04/05 02:33:00;;;;;;;8.27;3.13;;;;;;;6.49;43.29;102076.22;5004101;28;99774;-72
2023/04/05 02:35:27;;;;;;;10.50;3.30;;;;;;;6.56;43.60;102071.84;5004791;28;97657;-71
2023/04/05 02:37:55;;;;;;;8.90;3.22;;;;;;;6.64;43.02;102070.09;5004194;28;96959;-72
2023/04/05 02:40:22;;;;;;;11.40;3.10;;;;;;;6.74;43.24;102062.25;5006621;28;100932;-71
2023/04/05 02:42:48;;;;;;;7.38;2.85;;;;;;;6.72;42.77;102064.00;5008183;28;98941;-72
2023/04/05 02:45:15;;;;;;;7.28;2.70;;;;;;;6.71;42.95;102070.13;5002237;28;96920;-73
2023/04/05 02:47:41;;;;;;;8.95;3.45;;;;;;;6.61;42.95;102068.34;5001880;28;99480;-72
2023/04/05 02:50:08;;;;;;;7.47;3.20;;;;;;;6.58;43.56;102070.97;5011116;28;98986;-72
2023/04/05 02:52:36;;;;;;;8.90;3.00;;;;;;;6.94;42.73;102062.25;5012870;28;99087;-72
2023/04/05 02:55:05;;;;;;;8.38;3.22;;;;;;;6.64;43.40;102060.47;5008324;28;98927;-73
2023/04/05 02:57:31;;;;;;;8.93;3.35;;;;;;;7.10;42.92;102061.38;5005865;28;97081;-74
2023/04/05 02:59:58;;;;;;;10.90;3.28;;;;;;;6.94;43.23;102062.25;5003107;28;98806;-72
2023/04/05 03:02:24;;;;;;;11.48;3.03;;;;;;;6.88;43.24;102058.75;5008698;28;98039;-72
2023/04/05 03:04:52;;;;;;;8.05;2.97;;;;;;;7.18;42.68;102058.75;5018372;28;96737;-72
2023/04/05 03:07:18;;;;;;;7.55;3.40;;;;;;;7.06;43.06;102053.50;5010866;28;98538;-73
2023/04/05 03:09:46;;;;;;;11.20;3.50;;;;;;;7.12;42.36;102053.50;5015266;28;99258;-73
2023/04/05 03:12:14;;;;;;;8.02;3.05;;;;;;;7.16;42.14;102045.59;5017031;28;99775;-73
2023/04/05 03:14:41;;;;;;;8.00;3.30;;;;;;;7.15;42.21;102046.47;5014000;28;97209;-74
2023/04/05 03:17:07;;;;;;;7.50;2.92;;;;;;;7.32;41.67;102038.56;5011732;28;96854;-73
2023/04/05 03:19:34;;;;;;;9.07;3.10;;;;;;;7.21;41.75;102040.34;5006105;28;98928;-73
2023/04/05 03:22:00;;;;;;;14.48;3.45;;;;;;;7.22;42.37;102039.44;5012651;28;98905;-74
2023/04/05 03:24:27;;;;;;;11.82;2.92;;;;;;;7.05;42.67;102039.47;5010021;28;96883;-73
2023/04/05 03:26:53;;;;;;;13.80;3.10;;;;;;;7.16;41.71;102037.69;5007393;28;96899;-74
2023/04/05 03:29:21;;;;;;;9.05;3.45;;;;;;;7.04;42.76;102045.59;5009473;28;99676;-74
2023/04/05 03:31:49;;;;;;;12.13;3.20;;;;;;;7.12;42.56;102043.84;5010092;28;98957;-73
2023/04/05 03:34:15;;;;;;;15.48;3.78;;;;;;;7.53;41.90;102035.91;5004314;28;97897;-73
2023/04/05 03:36:42;;;;;;;9.85;3.70;;;;;;;7.79;41.32;102038.44;5005806;28;97325;-73
2023/04/05 03:39:09;;;;;;;8.20;3.50;;;;;;;8.06;40.05;102036.59;5007035;28;99133;-74
2023/04/05 03:41:35;;;;;;;13.45;3.83;;;;;;;8.00;39.90;102045.41;5003295;28;99037;-73
2023/04/05 03:44:02;;;;;;;12.38;4.30;;;;;;;8.04;40.08;102041.84;5007997;28;96893;-73
2023/04/05 03:46:29;;;;;;;9.88;3.75;;;;;;;8.04;39.66;102044.47;5009433;28;96852;-73
2023/04/05 03:48:57;;;;;;;7.07;3.30;;;;;;;7.97;39.80;102037.50;5005532;28;99186;-73
2023/04/05 03:51:23;;;;;;;13.63;4.30;;;;;;;8.11;39.78;102040.06;5015297;28;98895;-72
2023/04/05 03:53:50;;;;;;;17.83;7.47;;;;;;;8.07;39.75;102035.72;5008383;28;97157;-73
2023/04/05 03:56:16;;;;;;;16.00;4.03;;;;;;;8.11;39.96;102037.44;5013864;28;96840;-73
2023/04/05 03:58:43;;;;;;;13.60;3.95;;;;;;;8.21;39.81;102039.13;5008356;28;98950;-73
2023/04/05 04:01:10;;;;;;;6.15;3.30;;;;;;;8.37;39.56;102032.94;5003646;28;98880;-73
2023/04/05 04:03:38;;;;;;;9.68;3.17;;;;;;;8.19;39.88;102033.00;5008974;28;97228;-72
2023/04/05 04:06:05;;;;;;;5.90;2.63;;;;;;;8.11;39.98;102034.81;5000034;28;98958;-72
2023/04/05 04:08:32;;;;;;;7.78;2.53;;;;;;;7.91;40.75;102032.25;5001491;28;99180;-73
2023/04/05 04:10:58;;;;;;;8.98;3.30;;;;;;;8.00;40.60;102032.22;5009713;28;99209;-73
2023/04/05 04:13:25;;;;;;;10.95;3.75;;;;;;;8.26;40.46;102030.34;5008580;28;96934;-73
2023/04/05 04:15:52;;;;;;;7.60;3.25;;;;;;;8.21;40.34;102031.22;5010859;28;98461;-72
2023/04/05 04:18:18;;;;;;;7.53;3.20;;;;;;;8.00;40.53;102040.13;5010971;28;99066;-75
2023/04/05 04:20:46;;;;;;;8.05;2.67;;;;;;;7.94;40.41;102034.91;5013423;28;102932;-73
2023/04/05 04:23:13;;;;;;;9.63;2.85;;;;;;;8.31;40.45;102031.22;5009171;28;97038;-73
2023/04/05 04:25:39;;;;;;;6.20;2.50;;;;;;;8.02;40.77;102030.44;5008503;28;97253;-74
2023/04/05 04:28:06;;;;;;;6.45;2.78;;;;;;;8.33;40.20;102032.09;5010807;28;99165;-73
2023/04/05 04:30:33;;;;;;;6.53;3.30;;;;;;;8.33;40.30;102026.81;5005842;28;98865;-70
2023/04/05 04:33:03;;;;;;;6.93;2.83;;;;;;;8.03;40.76;102032.19;5007300;28;97565;-71
2023/04/05 04:35:32;;;;;;;7.88;3.15;;;;;;;8.09;40.99;102026.91;5006114;28;98131;-72
2023/04/05 04:38:01;;;;;;;8.07;3.08;;;;;;;8.17;40.61;102029.50;5009474;28;98893;-73
2023/04/05 04:40:31;;;;;;;9.90;2.60;;;;;;;8.42;40.10;102030.25;5010171;28;98813;-73
2023/04/05 04:42:58;;;;;;;9.23;2.47;;;;;;;8.38;40.15;102034.69;5004884;28;98731;-73
2023/04/05 04:45:25;;;;;;;9.25;3.10;;;;;;;8.32;39.96;102032.97;5009228;28;97183;-73
2023/04/05 04:47:52;;;;;;;5.93;2.72;;;;;;;8.31;40.01;102032.97;5008731;28;101738;-72
2023/04/05 04:50:20;;;;;;;7.57;2.65;;;;;;;8.46;39.87;102032.00;5009206;28;99597;-73
2023/04/05 04:52:47;;;;;;;13.57;2.75;;;;;;;8.35;39.81;102019.75;5012590;28;96749;-72
2023/04/05 04:55:15;;;;;;;12.98;3.78;;;;;;;8.14;39.71;102032.16;5011898;28;97050;-73
2023/04/05 04:57:41;;;;;;;5.90;3.35;;;;;;;8.43;39.47;102027.63;5017796;28;98957;-74
2023/04/05 05:00:11;;;;;;;7.05;3.00;;;;;;;8.40;39.39;102032.94;5011607;28;98955;-73
2023/04/05 05:02:37;;;;;;;12.90;3.50;;;;;;;8.47;39.37;102028.50;5014402;28;96792;-72
2023/04/05 05:05:04;;;;;;;13.65;3.35;;;;;;;8.19;39.80;102033.00;5010816;28;96951;-72
2023/04/05 05:07:31;;;;;;;12.20;3.53;;;;;;;8.29;39.47;102030.31;5006021;28;98159;-73
2023/04/05 05:09:57;;;;;;;8.02;3.10;;;;;;;8.40;39.85;102033.78;5008770;28;99566;-73
2023/04/05 05:12:26;;;;;;;11.32;3.40;;;;;;;8.25;39.51;102023.31;5003316;28;97787;-72
2023/04/05 05:14:53;;;;;;;14.02;3.42;;;;;;;8.15;39.71;102026.00;5010438;28;97276;-74
2023/04/05 05:17:19;;;;;;;10.38;3.65;;;;;;;8.23;39.94;102032.09;5006928;28;98894;-74
2023/04/05 05:19:45;;;;;;;10.57;4.32;;;;;;;8.44;39.48;102032.00;4999554;28;99706;-74
2023/04/05 05:22:12;;;;;;;9.40;3.65;;;;;;;8.33;39.44;102024.19;5005047;28;97478;-74
2023/04/05 05:24:38;;;;;;;13.05;3.85;;;;;;;8.16;39.68;102027.75;5008621;28;97025;-73
2023/04/05 05:27:05;;;;;;;13.63;4.60;;;;;;;8.38;39.47;102025.03;5001455;28;98891;-73
2023/04/05 05:29:32;;;;;;;10.63;3.50;;;;;;;8.39;38.85;102029.41;5006974;28;98859;-73
2023/04/05 05:31:59;;;;;;;9.18;4.07;;;;;;;8.30;39.28;102026.81;5005114;28;97547;-73
2023/04/05 05:34:25;;;;;;;7.65;3.03;;;;;;;8.61;38.76;102024.84;5002080;28;97026;-73
2023/04/05 05:36:52;;;;;;;5.22;2.75;;;;;;;8.57;38.51;102024.91;5001744;28;98917;-74
2023/04/05 05:39:19;;;;;;;6.53;3.30;;;;;;;8.75;38.47;102032.66;4996286;28;99142;-73
2023/04/05 05:41:46;;;;;;;6.15;2.55;;;;;;;8.74;38.25;102017.72;5002128;28;97200;-76
2023/04/05 05:44:12;;;;;;;10.48;3.80;;;;;;;8.89;38.10;102022.88;5004114;28;96871;-74
2023/04/05 05:46:40;;;;;;;6.72;3.05;;;;;;;8.97;38.05;102015.81;5005975;28;98249;-75
2023/04/05 05:49:06;;;;;;;10.63;5.40;;;;;;;8.92;38.06;102020.25;4999862;28;99440;-73
2023/04/05 05:51:33;;;;;;;13.70;6.97;;;;;;;9.05;38.20;102023.66;5007591;28;96859;-74
2023/04/05 05:53:59;;;;;;;12.70;5.60;;;;;;;9.18;38.27;102015.59;5008456;28;96821;-73
2023/04/05 05:56:25;;;;;;;10.93;4.35;;;;;;;9.23;38.17;102023.47;5005225;28;98941;-73
2023/04/05 05:58:52;;;;;;;11.23;3.60;;;;;;;9.39;38.35;102010.97;5006018;28;98757;-73
2023/04/05 06:01:21;;;;;;;9.68;2.88;;;;;;;9.10;37.84;102017.44;5007288;28;97465;-74
2023/04/05 06:03:49;;;;;;;9.80;3.33;;;;;;;9.06;37.96;102018.34;5005993;28;96828;-74
2023/04/05 06:06:16;;;;;;;6.70;3.20;;;;;;;9.26;37.83;102006.72;5006796;28;100678;-73
2023/04/05 06:08:42;;;;;;;10.73;3.28;;;;;;;9.43;37.53;102007.44;5004279;28;99848;-74
2023/04/05 06:11:17;;;;;;;7.30;2.55;;;;;;;9.21;37.42;102006.78;5008769;28;97586;-73
2023/04/05 06:13:46;;;;;;;8.60;2.08;;;;;;;8.75;37.86;102011.59;5008618;28;98741;-75
2023/04/05 06:16:12;;;;;;;7.90;2.95;;;;;;;9.52;37.55;102008.19;5000632;28;97876;-73
2023/04/05 06:18:38;;;;;;;6.28;2.35;;;;;;;9.53;36.94;102016.97;5000860;28;98877;-74
2023/04/05 06:21:08;;;;;;;6.13;2.80;;;;;;;9.77;36.70;102019.38;5005841;28;97123;-74
2023/04/05 06:23:34;;;;;;;5.72;2.60;;;;;;;9.48;36.48;102021.44;5006583;28;98768;-74
2023/04/05 06:26:01;;;;;;;11.73;2.83;;;;;;;9.30;36.68;102019.88;5003444;28;100909;-74
2023/04/05 06:28:27;;;;;;;11.38;2.88;;;;;;;9.06;37.33;102015.69;5003938;28;98846;-74
2023/04/05 06:30:55;;;;;;;13.52;3.53;;;;;;;9.06;37.45;102013.06;5007166;28;97220;-74
2023/04/05 06:33:21;;;;;;;12.32;4.43;;;;;;;9.33;37.07;102009.28;5005240;28;98448;-74
2023/04/05 06:35:48;;;;;;;8.75;3.45;;;;;;;9.29;37.47;102018.13;5001033;28;99127;-74
2023/04/05 06:38:16;;;;;;;6.88;3.10;;;;;;;9.30;37.36;102019.88;5002627;28;98988;-73
2023/04/05 06:40:53;;;;;;;11.02;3.70;;;;;;;9.30;37.46;102022.53;5007855;28;97055;-75
2023/04/05 06:43:20;;;;;;;10.68;2.90;;;;;;;9.36;37.67;102024.22;5007135;28;97481;-74
2023/04/05 06:45:46;;;;;;;12.85;3.65;;;;;;;9.52;37.49;102021.38;4999920;28;101310;-74
2023/04/05 06:48:12;;;;;;;7.82;2.88;;;;;;;9.60;37.11;102016.91;5006977;28;98780;-73
2023/04/05 06:50:39;;;;;;;10.68;2.83;;;;;;;9.55;37.38;102013.44;4999388;28;98947;-74
2023/04/05 06:53:06;;;;;;;9.88;2.78;;;;;;;9.81;37.38;102020.19;5008596;28;97755;-74
2023/04/05 06:55:35;;;;;;;5.93;2.63;;;;;;;10.07;36.88;102014.56;5015272;28;98997;-74
2023/04/05 06:58:01;;;;;;;8.75;2.78;;;;;;;9.70;37.22;102014.16;5014296;28;100996;-74
2023/04/05 07:00:27;;;;;;;15.18;2.97;;;;;;;9.97;37.51;102008.56;5008900;28;96816;-74
2023/04/05 07:02:54;;;;;;;6.45;2.45;;;;;;;9.90;37.45;102020.09;5014290;28;96817;-74
2023/04/05 07:05:21;;;;;;;6.97;2.75;;;;;;;10.13;36.68;102020.66;5004369;28;98312;-75
2023/04/05 07:07:47;;;;;;;8.52;2.92;;;;;;;10.35;36.21;102015.97;5008012;28;98246;-74
2023/04/05 07:10:14;;;;;;;8.75;3.25;;;;;;;10.47;36.44;102013.16;5009376;28;96939;-75
2023/04/05 07:12:41;;;;;;;12.43;3.42;;;;;;;10.17;36.94;102008.31;5007611;28;97350;-75
2023/04/05 07:15:09;;;;;;;7.93;2.72;;;;;;;10.32;36.68;102008.09;5009834;28;97651;-74
2023/04/05 07:17:35;;;;;;;12.00;3.60;;;;;;;10.44;36.83;101999.09;5006016;28;99136;-75
2023/04/05 07:20:05;;;;;;;15.43;3.22;;;;;;;10.03;36.88;102002.31;5012360;28;97368;-74
2023/04/05 07:22:31;;;;;;;13.48;5.53;;;;;;;9.85;37.59;102000.75;5010931;28;97250;-74
2023/04/05 07:24:58;;;;;;;12.05;3.42;;;;;;;9.92;37.93;102008.59;5011336;28;99091;-74
2023/04/05 07:27:24;;;;;;;10.13;3.70;;;;;;;10.06;37.38;101989.94;5006821;28;100307;-74
2023/04/05 07:29:52;;;;;;;11.82;4.30;;;;;;;10.02;38.09;102000.56;5010159;28;96900;-74
2023/04/05 07:32:18;;;;;;;11.20;3.72;;;;;;;10.03;37.55;101997.03;5006042;28;96779;-74
2023/04/05 07:34:45;;;;;;;11.20;3.63;;;;;;;10.05;38.03;101995.22;5007865;28;99842;-75
2023/04/05 07:37:11;;;;;;;6.93;3.58;;;;;;;10.11;38.06;101996.00;5007137;28;98862;-73
2023/04/05 07:39:38;;;;;;;11.63;5.97;;;;;;;10.45;37.44;102001.72;5006547;28;96871;-74
2023/04/05 07:42:05;;;;;;;10.70;4.95;;;;;;;10.79;36.66;102002.94;5009010;28;96812;-74
2023/04/05 07:44:31;;;;;;;21.90;4.63;;;;;;;10.87;36.75;102002.81;5009272;28;99437;-74
2023/04/05 07:46:59;;;;;;;11.15;4.32;;;;;;;10.83;36.86;102008.19;5005268;28;98970;-73
2023/04/05 07:49:26;;;;;;;13.40;4.30;;;;;;;11.12;36.28;102009.44;5009652;28;97343;-73
2023/04/05 07:51:54;;;;;;;14.05;4.75;;;;;;;11.28;35.96;102009.16;5009636;28;97433;-74
2023/04/05 07:54:21;;;;;;;16.00;4.78;;;;;;;11.50;35.66;102008.72;5009875;28;99609;-74
2023/04/05 07:56:48;;;;;;;12.02;5.20;;;;;;;11.46;35.65;102001.75;4997524;28;99037;-74
2023/04/05 07:59:15;;;;;;;17.98;5.57;;;;;;;11.58;35.88;102001.50;4997996;28;97173;-73
2023/04/05 08:01:41;;;;;;;11.20;4.22;;;;;;;11.83;34.96;102009.84;5005918;28;96871;-74
2023/04/05 08:04:09;;;;;;;10.82;4.15;;;;;;;11.77;34.86;102003.81;5002472;28;99317;-74
2023/04/05 08:06:35;;;;;;;9.43;4.32;;;;;;;12.27;34.27;102008.03;5008316;28;98786;-75
2023/04/05 08:09:04;;;;;;;9.88;4.20;;;;;;;12.22;34.07;101999.28;5009590;28;96803;-73
2023/04/05 08:11:30;;;;;;;9.00;3.80;;;;;;;12.82;33.48;101996.09;5007964;28;96856;-74
2023/04/05 08:13:57;;;;;;;8.55;4.28;;;;;;;12.86;33.30;101998.66;5008462;28;99236;-75
2023/04/05 08:16:23;;;;;;;8.82;3.95;;;;;;;12.70;33.70;102005.25;5009600;28;99007;-76
2023/04/05 08:18:50;;;;;;;9.05;4.35;;;;;;;12.94;33.37;101996.66;5005460;28;97157;-74
2023/04/05 08:21:18;;;;;;;7.40;4.40;;;;;;;13.27;32.97;101996.72;5009734;28;97209;-74
2023/04/05 08:23:44;;;;;;;10.85;4.10;;;;;;;13.02;33.30;101997.34;4999256;28;98901;-75
2023/04/05 08:26:11;;;;;;;10.02;4.22;;;;;;;12.86;33.26;101993.34;5011250;28;98890;-76
2023/04/05 08:28:37;;;;;;;9.70;4.35;;;;;;;12.88;33.64;102002.13;5009825;28;97169;-74
2023/04/05 08:31:03;;;;;;;8.60;4.13;;;;;;;12.92;33.50;101998.50;5009422;28;98158;-74
2023/04/05 08:33:30;;;;;;;8.13;4.22;;;;;;;12.98;33.49;101989.50;5009589;28;100864;-74
2023/04/05 08:35:56;;;;;;;13.32;5.03;;;;;;;12.99;33.60;101994.78;5007286;28;98862;-75
2023/04/05 08:38:25;;;;;;;9.10;4.88;;;;;;;12.89;33.75;101993.25;4998519;28;96802;-74
2023/04/05 08:40:51;;;;;;;7.30;3.83;;;;;;;12.85;33.90;101986.31;5011098;28;97286;-74
2023/04/05 08:43:23;;;;;;;9.05;3.92;;;;;;;12.89;34.04;101987.94;5007319;28;99395;-74
2023/04/05 08:46:01;;;;;;;9.15;4.25;;;;;;;13.34;33.11;101988.56;5006428;28;100015;-75
2023/04/05 08:48:31;;;;;;;11.30;5.13;;;;;;;13.40;33.03;101990.16;5005895;28;97941;-74
2023/04/05 08:50:57;;;;;;;12.20;4.10;;;;;;;13.34;32.83;101987.69;5005727;28;96713;-74
2023/04/05 08:53:25;;;;;;;10.27;4.72;;;;;;;13.54;32.83;101988.00;5004690;28;99145;-74
2023/04/05 08:55:55;;;;;;;15.23;5.07;;;;;;;13.37;33.03;101991.16;5005033;28;99925;-75
2023/04/05 08:58:24;;;;;;;9.48;4.25;;;;;;;13.61;32.72;101994.88;4999628;28;97541;-74
2023/04/05 09:00:51;;;;;;;10.05;4.32;;;;;;;13.64;32.95;101989.50;5005755;28;97124;-74
2023/04/05 09:03:21;;;;;;;9.20;4.18;;;;;;;13.14;33.02;101988.22;5002955;28;99246;-74
2023/04/05 09:05:50;;;;;;;11.90;4.07;;;;;;;13.01;33.46;101982.34;5010204;28;99079;-74
2023/04/05 09:08:17;;;;;;;12.25;4.15;;;;;;;13.07;33.47;101982.16;5003206;28;96752;-74
2023/04/05 09:10:44;;;;;;;12.07;4.22;;;;;;;13.56;32.45;101976.44;5003349;28;96966;-74
2023/04/05 09:13:11;;;;;;;10.32;4.65;;;;;;;13.61;32.31;101976.31;5003902;28;99233;-74
2023/04/05 09:15:39;;;;;;;17.73;4.18;;;;;;;13.40;32.64;101974.25;5001443;28;99199;-74
2023/04/05 09:18:05;;;;;;;6.88;3.60;;;;;;;13.95;31.51;101979.72;5006189;28;97156;-74
2023/04/05 09:20:31;;;;;;;8.95;3.80;;;;;;;13.89;31.39;101981.69;5007214;28;96895;-75
2023/04/05 09:22:58;;;;;;;7.60;3.67;;;;;;;14.14;31.13;101977.38;5009305;28;98304;-75
2023/04/05 09:25:37;;;;;;;12.80;4.65;;;;;;;14.26;30.95;101974.31;5001694;28;97896;-74
2023/04/05 09:28:05;;;;;;;7.88;4.13;;;;;;;14.32;30.77;101981.22;5006719;28;96813;-74
2023/04/05 09:30:33;;;;;;;8.23;3.88;;;;;;;13.86;31.40;101973.78;5004051;28;97239;-74
2023/04/05 09:33:00;;;;;;;17.00;5.70;;;;;;;14.01;31.40;101975.13;5006452;28;97132;-74
2023/04/05 09:35:29;;;;;;;10.43;4.05;;;;;;;14.48;30.84;101969.25;5001833;28;98977;-75
2023/04/05 09:37:57;;;;;;;5.63;3.50;;;;;;;14.30;30.49;101969.78;5006056;28;96858;-75
2023/04/05 09:40:39;;;;;;;7.97;3.65;;;;;;;14.86;30.17;101975.06;5002847;28;97962;-75
2023/04/05 09:43:07;;;;;;;6.70;4.03;;;;;;;14.79;30.17;101971.75;5008209;28;99079;-75
2023/04/05 09:45:38;;;;;;;10.45;3.92;;;;;;;14.93;29.65;101971.28;5004752;28;98871;-76
2023/04/05 09:48:05;;;;;;;4.95;3.42;;;;;;;14.93;29.91;101968.63;5007495;28;97350;-74
2023/04/05 09:50:31;;;;;;;13.93;3.85;;;;;;;14.62;30.12;101966.13;5004201;28;96877;-74
2023/04/05 09:53:09;;;;;;;8.05;4.35;;;;;;;14.96;29.76;101966.75;5009534;28;99086;-74
2023/04/05 09:55:36;;;;;;;7.32;3.33;;;;;;;14.95;29.16;101961.47;5008766;28;101313;-74
2023/04/05 09:58:03;;;;;;;10.55;3.38;;;;;;;14.66;29.91;101960.66;5002412;28;97066;-73
2023/04/05 10:00:31;;;;;;;6.82;3.45;;;;;;;14.44;29.80;101954.28;5001119;28;98073;-73
2023/04/05 10:02:58;;;;;;;7.40;3.45;;;;;;;14.57;29.70;101954.78;5002575;28;98831;-74
2023/04/05 10:05:26;;;;;;;7.88;3.40;;;;;;;14.81;29.14;101961.94;5006715;28;98674;-74
2023/04/05 10:07:54;;;;;;;9.55;3.65;;;;;;;14.75;29.18;101957.69;5009629;28;97075;-75
2023/04/05 10:10:22;;;;;;;8.02;3.60;;;;;;;14.86;29.05;101959.97;5005466;28;97159;-74
2023/04/05 10:12:50;;;;;;;8.52;3.90;;;;;;;14.75;29.00;101955.03;5008396;28;98951;-74
2023/04/05 10:15:17;;;;;;;6.93;3.05;;;;;;;14.52;29.10;101952.25;5002553;28;98740;-75
2023/04/05 10:17:52;;;;;;;13.27;4.00;;;;;;;13.77;30.18;101952.84;5007653;28;96853;-74
2023/04/05 10:20:20;;;;;;;7.45;3.40;;;;;;;14.09;29.98;101954.50;5008976;28;96913;-75
2023/04/05 10:23:00;;;;;;;10.30;3.30;;;;;;;14.20;30.20;101958.56;4999649;28;99560;-74
2023/04/05 10:25:35;;;;;;;8.57;4.15;;;;;;;14.03;30.07;101957.34;5004521;28;97903;-74
2023/04/05 10:28:05;;;;;;;8.35;3.50;;;;;;;14.02;30.37;101958.28;5002599;28;97832;-74
2023/04/05 10:30:36;;;;;;;10.48;3.58;;;;;;;13.75;30.39;101958.19;5007021;28;97574;-74
2023/04/05 10:33:12;;;;;;;7.32;3.42;;;;;;;13.41;30.90;101952.09;5005665;28;99132;-75
2023/04/05 10:35:45;;;;;;;6.00;3.00;;;;;;;13.54;30.97;101949.03;5005472;28;98960;-75
2023/04/05 10:38:17;;;;;;;11.85;4.32;;;;;;;13.44;31.12;101955.56;5006869;28;96787;-75
2023/04/05 10:40:47;;;;;;;5.03;3.25;;;;;;;13.63;31.05;101953.22;5004631;28;96922;-74
2023/04/05 10:43:17;;;;;;;6.15;3.17;;;;;;;13.53;30.95;101949.94;5001764;28;98886;-74
2023/04/05 10:45:46;;;;;;;7.45;3.40;;;;;;;13.67;30.84;101952.22;5002572;28;98766;-74
2023/04/05 10:48:20;;;;;;;6.57;3.75;;;;;;;13.58;31.06;101955.16;4997865;28;97678;-75
2023/04/05 10:50:47;;;;;;;7.13;3.60;;;;;;;13.60;31.23;101955.97;5004314;28;97295;-74
2023/04/05 10:53:15;;;;;;;6.95;3.65;;;;;;;13.49;31.96;101958.06;5002030;28;99147;-74
2023/04/05 10:55:44;;;;;;;11.52;3.70;;;;;;;13.59;31.50;101950.72;5008043;28;99218;-74
2023/04/05 10:58:12;;;;;;;9.77;4.15;;;;;;;13.68;31.11;101943.34;5007203;28;97319;-74
2023/04/05 11:00:40;;;;;;;7.88;3.95;;;;;;;13.63;30.98;101953.22;5005821;28;97237;-74
2023/04/05 11:03:06;;;;;;;7.18;3.63;;;;;;;13.82;31.10;101938.50;5007911;28;98918;-74
2023/04/05 11:05:36;;;;;;;8.70;3.97;;;;;;;14.20;30.33;101945.28;5004128;28;99448;-74
2023/04/05 11:08:05;;;;;;;7.40;3.55;;;;;;;14.11;30.14;101942.06;5006556;28;97061;-73
2023/04/05 11:10:34;;;;;;;8.88;3.47;;;;;;;13.93;30.77;101944.34;5008229;28;96824;-74
2023/04/05 11:13:06;;;;;;;9.30;2.90;;;;;;;13.63;30.58;101947.03;5008832;28;98973;-75
2023/04/05 11:15:34;;;;;;;5.65;3.10;;;;;;;14.13;30.09;101934.88;5011092;28;97582;-74
2023/04/05 11:18:05;;;;;;;12.52;3.63;;;;;;;14.53;29.74;101938.03;5010139;28;97037;-75
2023/04/05 11:20:46;;;;;;;5.18;3.08;;;;;;;14.89;28.61;101935.94;5011350;28;96784;-73
2023/04/05 11:23:15;;;;;;;7.15;3.20;;;;;;;15.00;29.08;101927.56;5010178;28;99216;-75
2023/04/05 11:25:47;;;;;;;6.75;3.22;;;;;;;15.05;28.45;101931.81;4999237;28;98949;-75
2023/04/05 11:28:24;;;;;;;9.82;3.05;;;;;;;14.96;28.87;101924.16;5011508;28;97291;-74
2023/04/05 11:30:52;;;;;;;10.30;3.33;;;;;;;15.30;28.95;101922.91;5002225;28;97212;-74